createdAt,value
2019-04-03T00:00:22.471Z,96.17
2019-04-03T00:01:22.468Z,96.46
2019-04-03T00:02:22.475Z,96.46
2019-04-03T00:03:22.488Z,96.17
2019-04-03T00:04:22.496Z,95.89
2019-04-03T00:05:22.487Z,95.98
2019-04-03T00:06:22.454Z,96.46
2019-04-03T00:07:22.454Z,96.75
2019-04-03T00:08:22.535Z,96.65
2019-04-03T00:09:22.528Z,96.56
2019-04-03T00:10:22.544Z,96.84
2019-04-03T00:11:22.444Z,97.32
2019-04-03T00:12:22.447Z,97.08
2019-04-03T00:13:22.582Z,97.36
2019-04-03T00:14:22.442Z,97.17
2019-04-03T00:15:22.437Z,97.08
2019-04-03T00:16:22.433Z,97.13
2019-04-03T00:17:22.469Z,97.32
2019-04-03T00:18:22.430Z,97.51
2019-04-03T00:19:22.427Z,97.80
2019-04-03T00:20:22.431Z,97.61
2019-04-03T00:21:22.421Z,97.51
2019-04-03T00:22:22.420Z,97.61
2019-04-03T00:23:22.909Z,97.03
2019-04-03T00:24:22.997Z,97.13
2019-04-03T00:25:22.816Z,97.13
2019-04-03T00:26:22.761Z,97.75
2019-04-03T00:27:22.689Z,97.36
2019-04-03T00:28:22.849Z,97.41
2019-04-03T00:29:22.916Z,97.51
2019-04-03T00:30:22.783Z,97.75
2019-04-03T00:31:23.331Z,97.51
2019-04-03T00:32:23.365Z,97.70
2019-04-03T00:33:23.364Z,98.27
2019-04-03T00:34:23.481Z,97.84
2019-04-03T00:35:23.590Z,97.94
2019-04-03T00:36:23.331Z,98.32
2019-04-03T00:37:23.283Z,98.60
2019-04-03T00:38:23.918Z,98.51
2019-04-03T00:39:22.656Z,98.51
2019-04-03T00:40:22.752Z,98.89
2019-04-03T00:41:24.769Z,98.60
2019-04-03T00:42:24.173Z,98.99
2019-04-03T00:43:24.382Z,99.18
2019-04-03T00:44:23.998Z,98.79
2019-04-03T00:45:24.212Z,99.18
2019-04-03T00:46:22.808Z,99.18
2019-04-03T00:47:23.757Z,99.69
2019-04-03T00:48:25.044Z,99.75
2019-04-03T00:49:22.360Z,99.41
2019-04-03T00:50:22.394Z,99.32
2019-04-03T00:51:35.925Z,99.22
2019-04-03T00:52:36.017Z,99.89
2019-04-03T00:54:30.917Z,99.99
2019-04-03T00:55:29.271Z,99.98
2019-04-03T00:57:22.796Z,99.99
2019-04-03T00:58:22.502Z,99.99
2019-04-03T01:00:15.608Z,99.99
2019-04-03T01:01:15.373Z,99.99
2019-04-03T01:03:08.449Z,99.99
2019-04-03T01:04:08.359Z,99.99
2019-04-03T01:06:01.484Z,99.99
2019-04-03T01:07:01.289Z,99.99
2019-04-03T01:08:54.120Z,99.99
2019-04-03T01:09:54.103Z,99.99
2019-04-03T01:11:47.090Z,99.99
2019-04-03T01:12:47.038Z,99.99
2019-04-03T01:14:39.892Z,99.99
2019-04-03T01:15:39.866Z,99.99
2019-04-03T01:17:34.941Z,99.99
2019-04-03T01:18:35.127Z,99.99
2019-04-03T01:20:26.638Z,99.99
2019-04-03T01:21:26.539Z,99.99
2019-04-03T01:23:19.982Z,99.99
2019-04-03T01:24:20.090Z,99.99
2019-04-03T01:26:12.920Z,99.99
2019-04-03T01:27:12.693Z,99.99
2019-04-03T01:29:05.739Z,99.99
2019-04-03T01:30:05.545Z,99.99
2019-04-03T01:31:58.503Z,99.99
2019-04-03T01:32:58.385Z,99.99
2019-04-03T01:34:51.402Z,99.99
2019-04-03T01:35:51.295Z,99.99
2019-04-03T01:37:44.836Z,99.99
2019-04-03T01:38:44.615Z,99.99
2019-04-03T01:40:38.322Z,99.99
2019-04-03T01:41:38.132Z,99.99
2019-04-03T01:43:31.607Z,99.99
2019-04-03T01:44:31.399Z,99.99
2019-04-03T01:46:27.154Z,99.99
2019-04-03T01:47:27.450Z,99.99
2019-04-03T01:49:18.511Z,99.99
2019-04-03T01:50:18.291Z,99.99
2019-04-03T01:52:11.454Z,99.99
2019-04-03T01:53:11.159Z,99.99
2019-04-03T01:55:04.392Z,99.99
2019-04-03T01:56:05.101Z,99.99
2019-04-03T01:57:57.117Z,99.99
2019-04-03T01:58:56.896Z,99.99
2019-04-03T02:00:49.705Z,99.79
2019-04-03T02:01:49.643Z,99.98
2019-04-03T02:03:43.188Z,99.69
2019-04-03T02:04:43.087Z,99.22
2019-04-03T02:06:36.651Z,99.13
2019-04-03T02:07:36.442Z,98.65
2019-04-03T02:09:30.091Z,99.03
2019-04-03T02:10:29.936Z,98.36
2019-04-03T02:12:23.001Z,98.46
2019-04-03T02:13:22.658Z,98.08
2019-04-03T02:15:16.429Z,98.08
2019-04-03T02:16:16.305Z,97.99
2019-04-03T02:18:09.190Z,98.94
2019-04-03T02:19:09.030Z,98.84
2019-04-03T02:21:01.935Z,98.55
2019-04-03T02:22:01.947Z,98.46
2019-04-03T02:23:54.949Z,98.84
2019-04-03T02:24:54.686Z,99.13
2019-04-03T02:26:47.806Z,98.94
2019-04-03T02:27:47.644Z,98.74
2019-04-03T02:29:40.615Z,98.55
2019-04-03T02:30:42.706Z,98.84
2019-04-03T02:32:34.148Z,98.84
2019-04-03T02:33:34.036Z,99.17
2019-04-03T02:35:27.410Z,99.13
2019-04-03T02:36:27.192Z,99.74
2019-04-03T02:38:22.529Z,99.65
2019-04-03T02:39:20.462Z,99.46
2019-04-03T02:41:13.078Z,99.36
2019-04-03T02:42:12.939Z,99.65
2019-04-03T02:44:06.245Z,99.99
2019-04-03T02:45:05.790Z,99.99
2019-04-03T02:47:00.978Z,99.99
2019-04-03T02:47:58.770Z,99.99
2019-04-03T02:49:51.744Z,99.99
2019-04-03T02:50:51.684Z,99.99
2019-04-03T02:52:44.400Z,99.99
2019-04-03T02:53:44.580Z,99.99
2019-04-03T02:54:44.420Z,99.99
2019-04-03T02:55:44.371Z,99.99
2019-04-03T02:56:45.303Z,99.99
2019-04-03T02:57:44.287Z,99.99
2019-04-03T02:58:44.284Z,99.99
2019-04-03T02:59:44.271Z,99.99
2019-04-03T03:00:44.403Z,99.99
2019-04-03T03:01:44.274Z,99.99
2019-04-03T03:02:45.544Z,99.99
2019-04-03T03:03:44.261Z,99.99
2019-04-03T03:04:44.257Z,99.99
2019-04-03T03:05:44.250Z,99.99
2019-04-03T03:06:44.250Z,99.99
2019-04-03T03:07:44.248Z,99.99
2019-04-03T03:08:44.245Z,99.99
2019-04-03T03:09:46.661Z,99.99
2019-04-03T03:10:44.527Z,99.99
2019-04-03T03:11:44.233Z,99.99
2019-04-03T03:12:44.248Z,99.99
2019-04-03T03:13:44.309Z,99.99
2019-04-03T03:14:44.224Z,99.99
2019-04-03T03:15:45.347Z,99.99
2019-04-03T03:16:44.217Z,99.99
2019-04-03T03:17:44.215Z,99.99
2019-04-03T03:18:44.294Z,99.99
2019-04-03T03:19:44.216Z,99.99
2019-04-03T03:20:44.229Z,99.99
2019-04-03T03:21:45.405Z,99.99
2019-04-03T03:22:44.205Z,99.99
2019-04-03T03:23:44.201Z,99.99
2019-04-03T03:24:44.209Z,99.99
2019-04-03T03:25:44.190Z,99.99
2019-04-03T03:26:44.188Z,99.99
2019-04-03T03:27:44.181Z,99.99
2019-04-03T03:28:46.887Z,99.99
2019-04-03T03:29:44.174Z,99.99
2019-04-03T03:30:54.654Z,99.99
2019-04-03T03:32:04.615Z,99.99
2019-04-03T03:32:44.252Z,99.99
2019-04-03T03:33:44.270Z,99.99
2019-04-03T03:34:53.020Z,99.99
2019-04-03T03:35:47.154Z,99.99
2019-04-03T03:36:44.639Z,99.99
2019-04-03T03:37:44.158Z,99.99
2019-04-03T03:38:44.374Z,99.99
2019-04-03T03:39:44.636Z,99.99
2019-04-03T03:40:47.468Z,99.99
2019-04-03T03:41:44.133Z,99.99
2019-04-03T03:42:44.132Z,99.99
2019-04-03T03:43:44.129Z,99.99
2019-04-03T03:44:46.113Z,99.99
2019-04-03T03:45:44.119Z,99.99
2019-04-03T03:46:44.120Z,99.99
2019-04-03T03:47:44.416Z,99.99
2019-04-03T03:48:45.046Z,99.99
2019-04-03T03:49:44.527Z,99.99
2019-04-03T03:50:44.111Z,99.99
2019-04-03T03:51:44.101Z,99.99
2019-04-03T03:52:44.112Z,99.99
2019-04-03T03:53:45.880Z,99.99
2019-04-03T03:54:52.131Z,99.99
2019-04-03T03:56:37.358Z,99.99
2019-04-03T03:57:39.244Z,99.99
2019-04-03T03:59:31.096Z,99.99
2019-04-03T04:00:30.797Z,99.99
2019-04-03T04:02:24.188Z,99.99
2019-04-03T04:03:23.992Z,99.99
2019-04-03T04:05:19.831Z,99.99
2019-04-03T04:06:17.464Z,99.99
2019-04-03T04:08:11.507Z,99.99
2019-04-03T04:09:10.348Z,99.99
2019-04-03T04:11:03.360Z,99.99
2019-04-03T04:12:06.038Z,99.99
2019-04-03T04:13:56.027Z,99.99
2019-04-03T04:14:57.168Z,99.99
2019-04-03T04:16:48.873Z,99.99
2019-04-03T04:17:51.095Z,99.99
2019-04-03T04:19:41.732Z,99.99
2019-04-03T04:20:41.867Z,99.99
2019-04-03T04:22:34.475Z,99.99
2019-04-03T04:23:34.610Z,99.99
2019-04-03T04:25:28.293Z,99.99
2019-04-03T04:28:31.083Z,99.99
2019-04-03T04:29:32.490Z,99.99
2019-04-03T04:31:24.319Z,99.99
2019-04-03T04:35:22.902Z,99.99
2019-04-03T04:36:30.903Z,99.99
2019-04-03T04:38:15.718Z,99.99
2019-04-03T04:39:15.309Z,99.99
2019-04-03T04:41:11.619Z,99.99
2019-04-03T04:42:09.408Z,99.99
2019-04-03T04:43:12.185Z,99.99
2019-04-03T04:44:09.953Z,99.99
2019-04-03T04:45:11.857Z,99.99
2019-04-03T04:46:10.671Z,99.99
2019-04-03T04:47:08.403Z,99.99
2019-04-03T04:48:16.778Z,99.99
2019-04-03T04:50:02.660Z,99.99
2019-04-03T04:51:03.646Z,99.99
2019-04-03T04:52:03.546Z,99.99
2019-04-03T04:53:02.168Z,99.99
2019-04-03T04:54:01.845Z,99.99
2019-04-03T04:55:02.757Z,99.99
2019-04-03T04:56:01.904Z,99.99
2019-04-03T04:57:03.294Z,99.99
2019-04-03T04:58:04.597Z,99.99
2019-04-03T04:59:03.322Z,99.99
2019-04-03T05:00:01.941Z,99.99
2019-04-03T05:01:01.712Z,99.99
2019-04-03T05:02:01.703Z,99.99
2019-04-03T05:03:09.286Z,99.99
2019-04-03T05:04:55.875Z,99.99
2019-04-03T05:05:57.257Z,99.99
2019-04-03T05:07:48.008Z,99.99
2019-04-03T05:08:47.933Z,99.99
2019-04-03T05:10:40.892Z,99.99
2019-04-03T05:11:40.601Z,99.99
2019-04-03T05:13:34.219Z,99.99
2019-04-03T05:14:34.387Z,99.99
2019-04-03T05:17:35.750Z,99.99
2019-04-03T05:18:35.846Z,99.99
2019-04-03T05:20:29.354Z,99.99
2019-04-03T05:21:29.302Z,99.99
2019-04-03T05:23:23.885Z,99.99
2019-04-03T05:24:22.445Z,99.99
2019-04-03T05:26:15.923Z,99.99
2019-04-03T05:27:15.847Z,99.99
2019-04-03T05:29:08.792Z,99.99
2019-04-03T05:30:08.785Z,99.99
2019-04-03T05:32:01.535Z,99.99
2019-04-03T05:33:01.752Z,99.99
2019-04-03T05:34:54.591Z,99.99
2019-04-03T05:35:54.502Z,99.99
2019-04-03T05:37:47.256Z,99.99
2019-04-03T05:38:47.351Z,99.99
2019-04-03T05:40:40.352Z,99.99
2019-04-03T05:41:41.126Z,99.99
2019-04-03T05:42:40.068Z,99.99
2019-04-03T05:43:40.236Z,99.99
2019-04-03T05:44:40.267Z,99.99
2019-04-03T05:45:41.822Z,99.99
2019-04-03T05:46:39.963Z,99.99
2019-04-03T05:47:39.959Z,99.99
2019-04-03T05:48:40.072Z,99.99
2019-04-03T05:49:39.946Z,99.99
2019-04-03T05:50:40.020Z,99.99
2019-04-03T05:51:40.187Z,99.99
2019-04-03T05:52:40.006Z,99.99
2019-04-03T05:53:39.955Z,99.99
2019-04-03T05:54:40.306Z,99.99
2019-04-03T05:55:41.096Z,99.99
2019-04-03T05:56:42.496Z,99.99
2019-04-03T05:57:39.965Z,99.99
2019-04-03T05:58:39.967Z,99.99
2019-04-03T05:59:39.962Z,99.99
2019-04-03T06:00:40.305Z,99.99
2019-04-03T06:01:42.613Z,99.99
2019-04-03T06:02:39.907Z,99.99
2019-04-03T06:03:44.473Z,99.99
2019-04-03T06:04:40.815Z,99.99
2019-04-03T06:05:39.945Z,99.99
2019-04-03T06:06:39.953Z,99.99
2019-04-03T06:07:39.876Z,99.99
2019-04-03T06:08:40.596Z,99.98
2019-04-03T06:09:40.548Z,99.99
2019-04-03T06:10:39.895Z,99.60
2019-04-03T06:11:41.228Z,99.03
2019-04-03T06:12:39.871Z,99.03
2019-04-03T06:13:39.919Z,98.36
2019-04-03T06:14:40.283Z,97.27
2019-04-03T06:15:39.878Z,96.32
2019-04-03T06:16:39.894Z,96.60
2019-04-03T06:17:40.131Z,96.41
2019-04-03T06:18:39.834Z,95.94
2019-04-03T06:19:40.240Z,95.08
2019-04-03T06:20:42.550Z,95.32
2019-04-03T06:21:39.832Z,95.12
2019-04-03T06:22:39.932Z,94.93
2019-04-03T06:23:39.844Z,95.32
2019-04-03T06:24:40.061Z,94.46
2019-04-03T06:25:39.829Z,93.98
2019-04-03T06:26:39.817Z,94.08
2019-04-03T06:27:42.149Z,94.27
2019-04-03T06:28:42.452Z,94.27
2019-04-03T06:29:39.804Z,93.60
2019-04-03T06:30:39.803Z,93.70
2019-04-03T06:31:39.795Z,93.70
2019-04-03T06:32:40.016Z,94.17
2019-04-03T06:33:40.037Z,94.46
2019-04-03T06:34:42.418Z,94.17
2019-04-03T06:35:39.787Z,94.17
2019-04-03T06:36:39.783Z,94.08
2019-04-03T06:37:39.802Z,93.98
2019-04-03T06:38:39.866Z,94.37
2019-04-03T06:39:39.928Z,94.17
2019-04-03T06:40:39.817Z,93.98
2019-04-03T06:41:41.660Z,94.27
2019-04-03T06:42:39.860Z,94.08
2019-04-03T06:43:39.770Z,94.27
2019-04-03T06:44:39.766Z,94.08
2019-04-03T06:45:42.810Z,93.70
2019-04-03T06:46:39.761Z,93.98
2019-04-03T06:47:39.763Z,94.27
2019-04-03T06:48:39.754Z,93.88
2019-04-03T06:49:40.266Z,94.51
2019-04-03T06:50:39.748Z,93.74
2019-04-03T06:51:40.000Z,93.46
2019-04-03T06:52:39.786Z,93.65
2019-04-03T06:53:39.743Z,93.08
2019-04-03T06:54:39.746Z,92.98
2019-04-03T06:55:39.963Z,93.17
2019-04-03T06:56:40.527Z,93.27
2019-04-03T06:57:40.049Z,93.74
2019-04-03T06:58:40.272Z,93.65
2019-04-03T06:59:39.733Z,92.98
2019-04-03T07:00:39.728Z,92.41
2019-04-03T07:01:39.726Z,92.69
2019-04-03T07:02:39.792Z,93.17
2019-04-03T07:03:39.719Z,92.88
2019-04-03T07:04:39.725Z,92.60
2019-04-03T07:05:41.670Z,92.50
2019-04-03T07:06:39.950Z,92.60
2019-04-03T07:07:39.712Z,92.60
2019-04-03T07:08:41.052Z,92.60
2019-04-03T07:09:39.731Z,93.27
2019-04-03T07:10:40.396Z,92.88
2019-04-03T07:11:39.710Z,93.17
2019-04-03T07:12:39.814Z,93.46
2019-04-03T07:13:39.703Z,94.03
2019-04-03T07:14:39.704Z,93.46
2019-04-03T07:15:39.697Z,93.65
2019-04-03T07:16:39.694Z,93.84
2019-04-03T07:17:39.703Z,93.84
2019-04-03T07:18:39.693Z,93.65
2019-04-03T07:19:40.204Z,93.84
2019-04-03T07:20:39.729Z,93.74
2019-04-03T07:21:39.687Z,93.46
2019-04-03T07:22:39.736Z,93.65
2019-04-03T07:23:39.678Z,93.65
2019-04-03T07:24:39.681Z,93.93
2019-04-03T07:25:39.917Z,94.41
2019-04-03T07:26:39.675Z,93.93
2019-04-03T07:27:41.808Z,93.46
2019-04-03T07:28:41.597Z,93.55
2019-04-03T07:29:39.723Z,93.84
2019-04-03T07:30:39.896Z,94.46
2019-04-03T07:31:39.669Z,94.27
2019-04-03T07:32:39.683Z,93.79
2019-04-03T07:33:39.742Z,93.41
2019-04-03T07:34:39.685Z,93.88
2019-04-03T07:35:40.546Z,93.70
2019-04-03T07:36:41.392Z,93.60
2019-04-03T07:37:39.659Z,93.88
2019-04-03T07:38:39.910Z,92.93
2019-04-03T07:39:39.652Z,92.65
2019-04-03T07:40:39.888Z,92.65
2019-04-03T07:41:41.316Z,93.98
2019-04-03T07:42:39.651Z,92.93
2019-04-03T07:43:39.648Z,93.12
2019-04-03T07:44:39.665Z,93.41
2019-04-03T07:45:39.653Z,93.88
2019-04-03T07:46:39.643Z,93.70
2019-04-03T07:47:39.647Z,93.41
2019-04-03T07:48:39.677Z,93.88
2019-04-03T07:49:40.278Z,93.98
2019-04-03T07:50:41.639Z,94.27
2019-04-03T07:51:39.638Z,94.17
2019-04-03T07:52:39.649Z,94.17
2019-04-03T07:53:39.635Z,94.56
2019-04-03T07:54:39.634Z,95.03
2019-04-03T07:55:39.641Z,95.12
2019-04-03T07:56:39.631Z,95.27
2019-04-03T07:57:41.401Z,95.22
2019-04-03T07:58:39.678Z,95.12
2019-04-03T07:59:39.628Z,95.27
2019-04-03T08:00:39.735Z,95.08
2019-04-03T08:01:41.641Z,95.17
2019-04-03T08:02:39.621Z,95.56
2019-04-03T08:03:39.618Z,95.75
2019-04-03T08:04:39.931Z,95.75
2019-04-03T08:05:39.615Z,96.13
2019-04-03T08:06:39.621Z,96.22
2019-04-03T08:07:39.611Z,95.94
2019-04-03T08:08:39.631Z,96.51
2019-04-03T08:09:39.827Z,96.32
2019-04-03T08:10:39.659Z,96.22
2019-04-03T08:11:39.613Z,96.61
2019-04-03T08:12:39.609Z,96.51
2019-04-03T08:13:39.632Z,96.80
2019-04-03T08:14:41.192Z,96.61
2019-04-03T08:15:40.146Z,96.98
2019-04-03T08:16:42.142Z,96.61
2019-04-03T08:17:39.598Z,96.70
2019-04-03T08:18:39.597Z,96.56
2019-04-03T08:19:39.593Z,96.94
2019-04-03T08:20:39.593Z,97.32
2019-04-03T08:21:39.846Z,96.56
2019-04-03T08:22:39.622Z,96.75
2019-04-03T08:23:39.592Z,96.17
2019-04-03T08:24:40.136Z,96.27
2019-04-03T08:25:42.151Z,96.46
2019-04-03T08:26:39.589Z,96.56
2019-04-03T08:27:39.585Z,96.56
2019-04-03T08:28:39.581Z,96.46
2019-04-03T08:29:39.583Z,96.70
2019-04-03T08:30:40.637Z,96.94
2019-04-03T08:31:42.722Z,97.22
2019-04-03T08:32:39.575Z,97.32
2019-04-03T08:33:39.575Z,96.94
2019-04-03T08:34:39.937Z,96.84
2019-04-03T08:35:39.574Z,97.32
2019-04-03T08:36:39.887Z,97.80
2019-04-03T08:37:41.625Z,96.75
2019-04-03T08:38:39.952Z,96.66
2019-04-03T08:39:39.739Z,96.66
2019-04-03T08:40:39.591Z,96.56
2019-04-03T08:41:39.567Z,97.32
2019-04-03T08:42:39.611Z,97.61
2019-04-03T08:43:39.563Z,97.42
2019-04-03T08:44:39.810Z,97.42
2019-04-03T08:45:39.711Z,97.22
2019-04-03T08:46:43.049Z,97.71
2019-04-03T08:47:39.592Z,97.42
2019-04-03T08:48:39.761Z,97.61
2019-04-03T08:49:39.751Z,97.22
2019-04-03T08:50:39.556Z,97.03
2019-04-03T08:51:39.563Z,97.13
2019-04-03T08:52:39.670Z,97.71
2019-04-03T08:53:39.777Z,97.13
2019-04-03T08:54:41.255Z,97.42
2019-04-03T08:55:39.554Z,97.32
2019-04-03T08:56:39.877Z,97.61
2019-04-03T08:57:39.773Z,97.51
2019-04-03T08:58:39.546Z,97.32
2019-04-03T08:59:39.577Z,97.13
2019-04-03T09:00:39.693Z,97.42
2019-04-03T09:01:39.542Z,96.75
2019-04-03T09:02:42.541Z,96.46
2019-04-03T09:03:39.844Z,96.75
2019-04-03T09:04:39.541Z,96.17
2019-04-03T09:05:39.736Z,96.32
2019-04-03T09:06:39.592Z,96.42
2019-04-03T09:07:39.532Z,96.17
2019-04-03T09:08:39.534Z,95.03
2019-04-03T09:09:39.561Z,94.98
2019-04-03T09:10:39.534Z,93.36
2019-04-03T09:11:39.555Z,92.35
2019-04-03T09:12:39.843Z,91.88
2019-04-03T09:13:39.541Z,91.02
2019-04-03T09:14:39.535Z,88.72
2019-04-03T09:15:39.610Z,88.72
2019-04-03T09:16:39.536Z,88.91
2019-04-03T09:17:39.549Z,88.34
2019-04-03T09:18:39.745Z,87.71
2019-04-03T09:19:41.718Z,87.29
2019-04-03T09:20:42.738Z,87.57
2019-04-03T09:21:39.864Z,87.71
2019-04-03T09:22:39.801Z,87.62
2019-04-03T09:23:41.094Z,86.43
2019-04-03T09:24:39.768Z,86.33
2019-04-03T09:25:39.549Z,85.38
2019-04-03T09:26:39.969Z,86.43
2019-04-03T09:27:40.714Z,86.33
2019-04-03T09:28:41.254Z,86.52
2019-04-03T09:29:39.653Z,87.24
2019-04-03T09:30:39.563Z,87.43
2019-04-03T09:31:39.557Z,87.82
2019-04-03T09:32:39.851Z,88.29
2019-04-03T09:33:39.563Z,87.34
2019-04-03T09:34:39.561Z,87.43
2019-04-03T09:35:42.667Z,88.58
2019-04-03T09:36:39.650Z,88.82
2019-04-03T09:37:39.567Z,89.20
2019-04-03T09:38:41.487Z,89.20
2019-04-03T09:39:39.581Z,90.16
2019-04-03T09:40:39.568Z,90.16
2019-04-03T09:41:39.621Z,90.25
2019-04-03T09:42:39.566Z,90.92
2019-04-03T09:43:40.094Z,90.45
2019-04-03T09:44:39.604Z,91.16
2019-04-03T09:45:39.602Z,92.02
2019-04-03T09:46:39.576Z,92.50
2019-04-03T09:47:39.948Z,93.93
2019-04-03T09:48:39.567Z,93.84
2019-04-03T09:49:42.529Z,93.74
2019-04-03T09:50:39.572Z,94.03
2019-04-03T09:51:39.567Z,93.65
2019-04-03T09:52:46.430Z,93.65
2019-04-03T09:53:39.565Z,93.84
2019-04-03T09:54:39.567Z,94.03
2019-04-03T09:55:39.744Z,93.93
2019-04-03T09:56:54.899Z,94.41
2019-04-03T09:57:39.742Z,94.03
2019-04-03T09:58:39.709Z,93.93
2019-04-03T09:59:39.598Z,93.46
2019-04-03T10:00:41.332Z,94.31
2019-04-03T10:01:39.560Z,94.31
2019-04-03T10:02:39.562Z,94.12
2019-04-03T10:03:39.557Z,94.22
2019-04-03T10:04:39.909Z,94.60
2019-04-03T10:05:39.563Z,94.17
2019-04-03T10:06:39.561Z,93.31
2019-04-03T10:07:39.583Z,93.02
2019-04-03T10:08:40.366Z,93.41
2019-04-03T10:09:41.121Z,92.30
2019-04-03T10:10:39.555Z,90.59
2019-04-03T10:11:39.784Z,89.63
2019-04-03T10:12:39.567Z,88.87
2019-04-03T10:13:39.552Z,86.29
2019-04-03T10:14:39.551Z,85.62
2019-04-03T10:15:39.550Z,86.38
2019-04-03T10:16:39.592Z,84.76
2019-04-03T10:17:39.715Z,83.84
2019-04-03T10:18:41.773Z,84.23
2019-04-03T10:19:39.551Z,84.52
2019-04-03T10:20:39.914Z,84.32
2019-04-03T10:21:39.577Z,83.75
2019-04-03T10:22:39.554Z,83.89
2019-04-03T10:23:39.882Z,83.50
2019-04-03T10:24:39.692Z,84.36
2019-04-03T10:25:39.554Z,85.41
2019-04-03T10:26:40.847Z,85.51
2019-04-03T10:27:42.673Z,85.89
2019-04-03T10:28:42.129Z,85.41
2019-04-03T10:29:39.884Z,84.75
2019-04-03T10:30:39.779Z,85.13
2019-04-03T10:31:39.574Z,84.75
2019-04-03T10:32:39.566Z,83.60
2019-04-03T10:33:39.750Z,82.87
2019-04-03T10:34:39.564Z,82.78
2019-04-03T10:35:39.849Z,83.26
2019-04-03T10:36:40.170Z,80.38
2019-04-03T10:37:39.903Z,80.58
2019-04-03T10:38:41.891Z,81.92
2019-04-03T10:39:43.635Z,82.97
2019-04-03T10:40:39.870Z,82.78
2019-04-03T10:41:39.570Z,81.73
2019-04-03T10:42:39.575Z,81.63
2019-04-03T10:43:39.621Z,81.63
2019-04-03T10:44:39.919Z,81.54
2019-04-03T10:45:39.581Z,82.78
2019-04-03T10:46:39.923Z,82.97
2019-04-03T10:47:43.364Z,83.36
2019-04-03T10:48:39.583Z,83.83
2019-04-03T10:49:39.584Z,83.54
2019-04-03T10:50:39.584Z,81.63
2019-04-03T10:51:41.621Z,81.92
2019-04-03T10:52:39.587Z,81.73
2019-04-03T10:53:39.936Z,81.82
2019-04-03T10:54:39.590Z,80.10
2019-04-03T10:55:39.598Z,78.63
2019-04-03T10:56:39.802Z,77.86
2019-04-03T10:57:39.608Z,78.53
2019-04-03T10:58:42.247Z,78.34
2019-04-03T10:59:39.604Z,78.34
2019-04-03T11:00:39.604Z,79.00
2019-04-03T11:01:40.036Z,79.54
2019-04-03T11:02:39.821Z,80.02
2019-04-03T11:03:39.608Z,80.50
2019-04-03T11:04:39.653Z,80.59
2019-04-03T11:05:39.629Z,81.84
2019-04-03T11:06:39.617Z,82.60
2019-04-03T11:07:39.613Z,83.17
2019-04-03T11:08:39.615Z,83.17
2019-04-03T11:09:39.636Z,83.51
2019-04-03T11:10:40.596Z,83.51
2019-04-03T11:11:42.540Z,84.66
2019-04-03T11:12:39.625Z,84.85
2019-04-03T11:13:39.622Z,84.85
2019-04-03T11:14:40.027Z,84.95
2019-04-03T11:15:39.625Z,85.33
2019-04-03T11:16:39.624Z,86.47
2019-04-03T11:17:39.627Z,86.38
2019-04-03T11:18:39.649Z,86.57
2019-04-03T11:19:39.760Z,86.86
2019-04-03T11:20:41.010Z,88.29
2019-04-03T11:21:39.815Z,89.73
2019-04-03T11:22:42.191Z,91.64
2019-04-03T11:23:44.407Z,93.45
2019-04-03T11:24:42.099Z,94.70
2019-04-03T11:25:41.648Z,95.89
2019-04-03T11:26:39.736Z,95.98
2019-04-03T11:28:39.634Z,96.66
2019-04-03T11:29:41.842Z,97.32
2019-04-03T11:30:39.834Z,97.61
2019-04-03T11:30:54.598Z,96.27
2019-04-03T11:31:42.242Z,97.23
2019-04-03T11:32:41.260Z,97.42
2019-04-03T11:33:39.976Z,98.66
2019-04-03T11:34:39.636Z,99.38
2019-04-03T11:35:39.651Z,98.52
2019-04-03T11:36:39.706Z,97.08
2019-04-03T11:37:39.639Z,96.89
2019-04-03T11:38:39.636Z,97.56
2019-04-03T11:39:39.692Z,96.32
2019-04-03T11:40:39.633Z,96.51
2019-04-03T11:41:39.640Z,96.99
2019-04-03T11:42:40.571Z,96.61
2019-04-03T11:43:39.770Z,95.94
2019-04-03T11:44:39.636Z,95.46
2019-04-03T11:45:39.795Z,94.89
2019-04-03T11:46:39.814Z,95.17
2019-04-03T11:47:39.707Z,95.27
2019-04-03T11:48:42.855Z,94.31
2019-04-03T11:49:39.637Z,94.51
2019-04-03T11:50:40.195Z,94.46
2019-04-03T11:51:39.647Z,94.65
2019-04-03T11:52:39.958Z,94.46
2019-04-03T11:53:39.707Z,94.65
2019-04-03T11:54:40.073Z,94.12
2019-04-03T11:55:39.972Z,94.02
2019-04-03T11:56:39.640Z,93.45
2019-04-03T11:57:39.755Z,93.45
2019-04-03T11:58:39.959Z,92.78
2019-04-03T11:59:40.679Z,93.74
2019-04-03T12:00:39.875Z,93.35
2019-04-03T12:01:39.647Z,92.11
2019-04-03T12:02:40.362Z,91.83
2019-04-03T12:03:40.757Z,90.58
2019-04-03T12:04:39.646Z,89.53
2019-04-03T12:05:39.667Z,88.43
2019-04-03T12:06:39.726Z,87.56
2019-04-03T12:07:39.646Z,88.62
2019-04-03T12:08:39.658Z,88.90
2019-04-03T12:09:39.658Z,89.86
2019-04-03T12:10:39.676Z,89.76
2019-04-03T12:11:40.097Z,89.76
2019-04-03T12:12:40.177Z,86.13
2019-04-03T12:13:39.754Z,87.27
2019-04-03T12:14:39.655Z,88.48
2019-04-03T12:15:40.059Z,85.03
2019-04-03T12:16:39.693Z,86.57
2019-04-03T12:17:39.659Z,87.62
2019-04-03T12:18:39.664Z,87.52
2019-04-03T12:19:39.755Z,86.28
2019-04-03T12:20:43.385Z,85.51
2019-04-03T12:21:39.694Z,84.17
2019-04-03T12:22:39.674Z,83.89
2019-04-03T12:23:40.000Z,84.27
2019-04-03T12:24:39.694Z,83.22
2019-04-03T12:25:40.655Z,81.97
2019-04-03T12:26:42.512Z,81.30
2019-04-03T12:27:39.670Z,81.59
2019-04-03T12:28:39.684Z,81.97
2019-04-03T12:29:39.714Z,82.45
2019-04-03T12:30:40.639Z,80.35
2019-04-03T12:31:48.018Z,80.63
2019-04-03T12:32:43.605Z,81.30
2019-04-03T12:33:52.002Z,80.25
2019-04-03T12:34:40.054Z,79.87
2019-04-03T12:35:42.320Z,79.05
2019-04-03T12:36:49.025Z,80.00
2019-04-03T12:37:39.969Z,80.81
2019-04-03T12:39:40.087Z,77.17
2019-04-03T12:40:40.322Z,76.50
2019-04-03T12:41:39.793Z,77.08
2019-04-03T12:42:41.311Z,75.64
2019-04-03T12:45:26.921Z,75.07
2019-04-03T12:46:25.233Z,74.52
2019-04-03T12:47:26.946Z,73.91
2019-04-03T12:48:22.906Z,74.30
2019-04-03T12:49:23.397Z,74.30
2019-04-03T12:50:22.698Z,74.97
2019-04-03T12:51:22.267Z,76.54
2019-04-03T12:52:22.123Z,74.72
2019-04-03T12:53:22.382Z,75.20
2019-04-03T12:54:21.952Z,75.29
2019-04-03T12:55:24.571Z,73.66
2019-04-03T12:56:24.611Z,72.23
2019-04-03T12:57:22.179Z,72.80
2019-04-03T12:58:22.140Z,73.54
2019-04-03T12:59:21.975Z,72.86
2019-04-03T13:00:21.943Z,72.48
2019-04-03T13:01:21.951Z,73.54
2019-04-03T13:02:21.950Z,74.20
2019-04-03T13:03:23.850Z,74.49
2019-04-03T13:04:24.723Z,74.20
2019-04-03T13:05:22.566Z,74.77
2019-04-03T13:06:23.613Z,74.68
2019-04-03T13:07:21.973Z,74.58
2019-04-03T13:08:22.049Z,73.15
2019-04-03T13:09:21.980Z,73.63
2019-04-03T13:10:22.323Z,73.47
2019-04-03T13:11:22.349Z,73.09
2019-04-03T13:12:25.887Z,73.57
2019-04-03T13:13:22.027Z,73.47
2019-04-03T13:14:25.138Z,73.28
2019-04-03T13:15:22.523Z,73.28
2019-04-03T13:16:22.573Z,70.70
2019-04-03T13:18:17.718Z,72.03
2019-04-03T13:19:20.358Z,71.46
2019-04-03T13:21:18.746Z,71.94
2019-04-03T13:22:12.570Z,71.94
2019-04-03T13:24:03.125Z,71.56
2019-04-03T13:25:03.893Z,70.92
2019-04-03T13:26:58.016Z,68.72
2019-04-03T13:28:04.428Z,68.62
2019-04-03T13:29:50.326Z,68.33
2019-04-03T13:30:52.169Z,68.59
2019-04-03T13:32:51.898Z,68.75
2019-04-03T13:33:44.651Z,68.18
2019-04-03T13:35:38.072Z,67.69
2019-04-03T13:36:38.931Z,66.83
2019-04-03T13:38:32.546Z,67.73
2019-04-03T13:39:33.634Z,67.63
2019-04-03T13:41:25.181Z,67.06
2019-04-03T13:42:25.466Z,66.67
2019-04-03T13:44:20.185Z,67.06
2019-04-03T13:45:26.132Z,67.22
2019-04-03T13:47:13.223Z,67.69
2019-04-03T13:48:13.839Z,67.50
2019-04-03T13:50:07.378Z,67.57
2019-04-03T13:51:07.344Z,67.66
2019-04-03T13:53:02.686Z,69.96
2019-04-03T13:54:07.979Z,68.91
2019-04-03T13:55:53.444Z,70.25
2019-04-03T13:56:54.396Z,70.92
2019-04-03T13:58:47.000Z,71.11
2019-04-03T13:59:47.114Z,72.52
2019-04-03T14:01:40.188Z,71.02
2019-04-03T14:02:40.052Z,70.83
2019-04-03T14:04:33.391Z,69.87
2019-04-03T14:05:33.748Z,69.87
2019-04-03T14:07:28.563Z,70.96
2019-04-03T14:08:25.891Z,70.67
2019-04-03T14:10:19.158Z,69.33
2019-04-03T14:11:18.886Z,69.42
2019-04-03T14:13:12.501Z,67.57
2019-04-03T14:14:15.043Z,68.18
2019-04-03T14:16:18.216Z,68.37
2019-04-03T14:17:06.124Z,68.75
2019-04-03T14:18:58.751Z,68.24
2019-04-03T14:19:58.691Z,67.66
2019-04-03T14:21:52.363Z,69.20
2019-04-03T14:22:52.164Z,70.00
2019-04-03T14:24:53.273Z,69.71